Time;durP1;ratioP1;P1;durP2;ratioP2;P2;SDS_P1;SDS_P2;PMS_P1;PMS_P2;Temp;Humidity;BMP_temperature;BMP_pressure;BME280_temperature;BME280_humidity;BME280_pressure;Samples;Min_cycle;Max_cycle;Signal;HPM_P1;HPM_P2
2021/11/04 00:01:11;;;;;;;0.20;0.10;;;9.00;99.90;;;;;;5036281;28;20185;-63
2021/11/04 00:03:36;;;;;;;1.17;1.17;;;9.00;99.90;;;;;;5036263;28;20238;-64
2021/11/04 00:06:02;;;;;;;0.53;0.53;;;9.50;99.90;;;;;;5036166;28;20173;-65
2021/11/04 00:08:28;;;;;;;0.20;0.10;;;9.30;99.90;;;;;;5035871;28;20174;-65
2021/11/04 00:10:53;;;;;;;1.03;1.03;;;9.60;99.90;;;;;;5036093;28;20662;-67
2021/11/04 00:13:19;;;;;;;0.30;0.17;;;9.70;99.90;;;;;;5035847;28;20684;-64
2021/11/04 00:15:45;;;;;;;0.80;0.77;;;9.60;99.90;;;;;;5035897;28;20216;-66
2021/11/04 00:18:10;;;;;;;0.30;0.20;;;9.70;99.90;;;;;;5035706;28;20493;-64
2021/11/04 00:20:36;;;;;;;1.60;1.50;;;9.60;99.90;;;;;;5035686;28;20650;-64
2021/11/04 00:23:02;;;;;;;0.20;0.20;;;9.50;99.90;;;;;;5035947;28;20177;-67
2021/11/04 00:25:29;;;;;;;3.30;2.70;;;9.20;99.90;;;;;;5035420;28;20192;-66
2021/11/04 00:28:02;;;;;;;1.25;0.90;;;9.30;99.90;;;;;;5036523;28;20258;-67
2021/11/04 00:30:28;;;;;;;0.20;0.20;;;9.30;99.90;;;;;;5035911;28;20407;-63
2021/11/04 00:32:54;;;;;;;0.20;0.17;;;9.20;99.90;;;;;;5035597;28;20289;-64
2021/11/04 00:35:21;;;;;;;0.82;0.75;;;9.20;99.90;;;;;;5034635;28;20656;-64
2021/11/04 00:37:47;;;;;;;0.22;0.20;;;9.00;99.90;;;;;;5033707;28;20207;-64
2021/11/04 00:40:17;;;;;;;1.05;1.05;;;9.10;99.90;;;;;;5035200;28;20218;-64
2021/11/04 00:42:42;;;;;;;0.38;0.38;;;9.10;99.90;;;;;;5035321;28;20184;-63
2021/11/04 00:45:10;;;;;;;2.23;2.00;;;9.10;99.90;;;;;;5035185;28;20174;-64
2021/11/04 00:47:36;;;;;;;0.40;0.40;;;8.80;99.90;;;;;;5035349;28;20177;-67
2021/11/04 00:50:03;;;;;;;0.20;0.20;;;8.70;99.90;;;;;;5035243;28;20181;-67
2021/11/04 00:52:29;;;;;;;0.20;0.20;;;8.70;99.90;;;;;;5035203;28;20188;-67
2021/11/04 00:54:55;;;;;;;0.20;0.20;;;8.90;99.90;;;;;;5035573;28;20633;-67
2021/11/04 00:57:21;;;;;;;0.20;0.13;;;9.10;99.90;;;;;;5035130;28;20195;-64
2021/11/04 00:59:48;;;;;;;0.30;0.20;;;9.40;99.90;;;;;;5034845;28;20203;-63
2021/11/04 01:02:13;;;;;;;0.22;0.15;;;9.30;99.90;;;;;;5035249;28;20192;-63
2021/11/04 01:04:39;;;;;;;0.20;0.20;;;9.00;99.90;;;;;;5035452;28;20193;-65
2021/11/04 01:07:05;;;;;;;0.30;0.20;;;9.10;99.90;;;;;;5035555;28;20193;-66
2021/11/04 01:09:31;;;;;;;0.93;0.93;;;8.90;99.90;;;;;;5034641;28;20482;-67
2021/11/04 01:11:57;;;;;;;1.90;0.73;;;8.80;99.90;;;;;;5034827;28;20427;-64
2021/11/04 01:14:22;;;;;;;0.20;0.20;;;9.10;99.90;;;;;;5034610;28;20204;-67
2021/11/04 01:16:48;;;;;;;0.30;0.20;;;9.20;99.90;;;;;;5034850;28;20185;-65
2021/11/04 01:19:14;;;;;;;0.20;0.20;;;9.20;99.90;;;;;;5034425;28;20614;-64
2021/11/04 01:21:41;;;;;;;0.30;0.30;;;9.20;99.90;;;;;;5035115;28;20267;-66
2021/11/04 01:24:07;;;;;;;3.22;2.97;;;9.20;99.90;;;;;;5034763;28;20179;-64
2021/11/04 01:26:33;;;;;;;0.20;0.20;;;9.40;99.90;;;;;;5035040;28;20605;-64
2021/11/04 01:28:59;;;;;;;0.30;0.17;;;9.00;99.90;;;;;;5034506;28;20787;-64
2021/11/04 01:31:24;;;;;;;0.40;0.40;;;9.10;99.90;;;;;;5034791;28;20179;-64
2021/11/04 01:33:50;;;;;;;0.30;0.20;;;9.30;99.90;;;;;;5034915;28;20213;-64
2021/11/04 01:36:16;;;;;;;0.20;0.10;;;9.20;99.90;;;;;;5034686;28;20216;-64
2021/11/04 01:38:41;;;;;;;0.20;0.20;;;9.10;99.90;;;;;;5034563;28;20208;-64
2021/11/04 01:41:07;;;;;;;0.30;0.20;;;9.30;99.90;;;;;;5034807;28;20177;-65
2021/11/04 01:43:32;;;;;;;0.20;0.20;;;9.70;99.90;;;;;;5034688;28;20661;-64
2021/11/04 01:45:58;;;;;;;0.87;0.83;;;9.50;99.90;;;;;;5034551;28;20178;-64
2021/11/04 01:48:24;;;;;;;0.30;0.30;;;9.40;99.90;;;;;;5034006;28;20629;-64
2021/11/04 01:50:50;;;;;;;0.20;0.20;;;9.30;99.90;;;;;;5034686;28;20331;-64
2021/11/04 01:53:20;;;;;;;0.20;0.20;;;9.10;99.90;;;;;;5034412;28;20670;-64
2021/11/04 01:55:47;;;;;;;0.30;0.20;;;9.30;99.90;;;;;;5034141;28;20458;-64
2021/11/04 01:58:12;;;;;;;0.40;0.25;;;9.50;99.90;;;;;;5033937;28;20181;-64
2021/11/04 02:00:38;;;;;;;0.20;0.20;;;9.20;99.90;;;;;;5034134;28;20228;-64
2021/11/04 02:03:49;;;;;;;0.30;0.23;;;9.40;99.90;;;;;;5032846;28;20181;-64
2021/11/04 02:06:50;;;;;;;0.30;0.20;;;9.20;99.90;;;;;;5034157;28;20181;-64
2021/11/04 02:09:22;;;;;;;0.20;0.20;;;8.90;99.90;;;;;;5033910;28;20747;-64
2021/11/04 02:11:55;;;;;;;2.58;2.38;;;8.90;99.90;;;;;;5033918;28;20200;-64
2021/11/04 02:14:24;;;;;;;1.10;0.90;;;8.70;99.90;;;;;;5033741;28;20223;-64
2021/11/04 02:16:52;;;;;;;1.63;1.55;;;8.50;99.90;;;;;;5033550;28;20192;-64
2021/11/04 02:19:44;;;;;;;2.70;2.55;;;8.50;99.90;;;;;;5033478;28;20201;-64
2021/11/04 02:22:21;;;;;;;0.68;0.68;;;8.40;99.90;;;;;;5033805;28;20661;-64
2021/11/04 02:25:08;;;;;;;0.50;0.50;;;8.20;99.90;;;;;;5033700;28;20173;-64
2021/11/04 02:27:36;;;;;;;0.20;0.20;;;8.30;99.90;;;;;;5032876;28;20180;-64
2021/11/04 02:30:02;;;;;;;0.20;0.20;;;8.30;99.90;;;;;;5033469;28;20184;-64
2021/11/04 02:32:28;;;;;;;1.50;1.40;;;8.40;99.90;;;;;;5033562;28;20239;-64
2021/11/04 02:34:54;;;;;;;1.35;1.35;;;8.70;99.90;;;;;;5033842;28;20181;-64
2021/11/04 02:37:21;;;;;;;10.13;3.17;;;8.50;99.90;;;;;;5033614;28;20177;-64
2021/11/04 02:39:47;;;;;;;0.90;0.90;;;8.20;99.90;;;;;;5033226;28;20204;-64
2021/11/04 02:42:13;;;;;;;3.90;3.33;;;8.10;99.90;;;;;;5033450;28;20191;-64
2021/11/04 02:44:40;;;;;;;2.08;1.98;;;8.00;99.90;;;;;;5033482;28;20920;-64
2021/11/04 02:47:07;;;;;;;1.75;1.33;;;8.10;99.90;;;;;;5033457;28;20220;-64
2021/11/04 02:49:35;;;;;;;2.20;1.88;;;8.10;99.90;;;;;;5036786;28;20173;-64
2021/11/04 02:52:03;;;;;;;0.20;0.20;;;8.30;99.90;;;;;;5037920;28;20227;-64
2021/11/04 02:54:28;;;;;;;12.70;5.47;;;8.10;99.90;;;;;;5037418;28;20636;-64
2021/11/04 02:56:56;;;;;;;0.73;0.73;;;8.10;99.90;;;;;;5037427;28;20184;-64
2021/11/04 02:59:25;;;;;;;0.30;0.20;;;8.10;99.90;;;;;;5036065;28;20208;-64
2021/11/04 03:01:58;;;;;;;0.55;0.55;;;8.30;99.90;;;;;;5037554;28;20189;-64
2021/11/04 03:04:24;;;;;;;0.20;0.20;;;8.40;99.90;;;;;;5037033;28;20184;-64
2021/11/04 03:06:50;;;;;;;0.50;0.50;;;8.50;99.90;;;;;;5036149;28;20180;-64
2021/11/04 03:09:18;;;;;;;5.15;3.83;;;8.40;99.90;;;;;;5037047;28;20632;-65
2021/11/04 03:11:43;;;;;;;0.85;0.85;;;8.60;99.90;;;;;;5037312;28;20669;-64
2021/11/04 03:14:09;;;;;;;1.43;1.40;;;8.30;99.90;;;;;;5036957;28;20212;-64
2021/11/04 03:16:40;;;;;;;0.27;0.20;;;8.50;99.90;;;;;;5037021;28;20193;-64
2021/11/04 03:19:11;;;;;;;0.20;0.20;;;8.50;99.90;;;;;;5036989;28;20520;-64
2021/11/04 03:21:38;;;;;;;0.30;0.30;;;8.70;99.90;;;;;;5037168;28;20246;-65
2021/11/04 03:24:05;;;;;;;1.85;1.75;;;8.70;99.90;;;;;;5037329;28;20642;-64
2021/11/04 03:26:35;;;;;;;0.43;0.43;;;8.60;99.90;;;;;;5036859;28;20266;-64
2021/11/04 03:29:03;;;;;;;0.55;0.55;;;8.80;99.90;;;;;;5036537;28;20178;-64
2021/11/04 03:31:31;;;;;;;1.67;1.65;;;8.80;99.90;;;;;;5036738;28;20184;-66
2021/11/04 03:33:56;;;;;;;1.77;1.38;;;9.00;99.90;;;;;;5036645;28;20276;-67
2021/11/04 03:36:23;;;;;;;0.20;0.20;;;8.90;99.90;;;;;;5035723;28;20266;-67
2021/11/04 03:38:50;;;;;;;0.30;0.30;;;9.00;99.90;;;;;;5036247;28;20192;-64
2021/11/04 03:41:18;;;;;;;1.98;1.88;;;9.10;99.90;;;;;;5035648;28;20181;-66
2021/11/04 03:43:45;;;;;;;0.30;0.30;;;9.00;99.90;;;;;;5036565;28;20263;-66
2021/11/04 03:46:12;;;;;;;0.20;0.20;;;9.20;99.90;;;;;;5036711;28;20551;-66
2021/11/04 03:48:40;;;;;;;0.20;0.20;;;9.30;99.90;;;;;;5036934;28;20185;-68
2021/11/04 03:51:06;;;;;;;0.20;0.20;;;9.60;99.90;;;;;;5036659;28;20180;-66
2021/11/04 03:53:32;;;;;;;0.20;0.20;;;9.50;99.90;;;;;;5036401;28;20266;-65
2021/11/04 03:55:58;;;;;;;0.20;0.13;;;9.50;99.90;;;;;;5036960;28;20593;-66
2021/11/04 03:58:25;;;;;;;1.77;1.37;;;9.30;99.90;;;;;;5035059;28;20259;-66
2021/11/04 04:00:56;;;;;;;0.30;0.30;;;9.20;99.90;;;;;;5035999;28;20467;-66
2021/11/04 04:03:23;;;;;;;0.20;0.20;;;9.10;99.90;;;;;;5036561;28;20174;-66
2021/11/04 04:06:06;;;;;;;1.30;1.27;;;9.30;99.90;;;;;;5036815;28;20188;-66
2021/11/04 04:08:35;;;;;;;1.85;1.75;;;8.80;99.90;;;;;;5035853;28;20180;-66
2021/11/04 04:11:02;;;;;;;0.30;0.20;;;8.90;99.90;;;;;;5035907;28;20266;-66
2021/11/04 04:13:27;;;;;;;2.38;0.75;;;9.00;99.90;;;;;;5034849;28;20202;-65
2021/11/04 04:15:53;;;;;;;0.20;0.20;;;9.10;99.90;;;;;;5035944;28;20178;-66
2021/11/04 04:18:18;;;;;;;0.20;0.20;;;9.10;99.90;;;;;;5035761;28;20189;-66
2021/11/04 04:20:46;;;;;;;0.20;0.10;;;8.90;99.90;;;;;;5035835;28;20208;-66
2021/11/04 04:23:12;;;;;;;0.20;0.20;;;9.00;99.90;;;;;;5036003;28;20177;-65
2021/11/04 04:25:37;;;;;;;0.20;0.20;;;8.90;99.90;;;;;;5035675;28;20191;-64
2021/11/04 04:28:03;;;;;;;0.30;0.20;;;9.00;99.90;;;;;;5035525;28;20192;-64
2021/11/04 04:30:29;;;;;;;0.20;0.10;;;8.80;99.90;;;;;;5035558;28;20196;-64
2021/11/04 04:32:55;;;;;;;0.20;0.17;;;9.00;99.90;;;;;;5035760;28;20506;-66
2021/11/04 04:35:21;;;;;;;0.20;0.20;;;9.10;99.90;;;;;;5034422;28;20376;-66
2021/11/04 04:37:46;;;;;;;0.20;0.10;;;9.10;99.90;;;;;;5035516;28;20189;-66
2021/11/04 04:40:12;;;;;;;0.20;0.20;;;9.00;99.90;;;;;;5035010;28;20205;-65
2021/11/04 04:42:37;;;;;;;0.20;0.20;;;9.30;99.90;;;;;;5035211;28;20180;-65
2021/11/04 04:45:07;;;;;;;0.50;0.50;;;9.20;99.90;;;;;;5035303;28;20254;-65
2021/11/04 04:47:33;;;;;;;0.20;0.20;;;9.20;99.90;;;;;;5035264;28;20177;-65
2021/11/04 04:49:59;;;;;;;0.22;0.17;;;9.30;99.90;;;;;;5035061;28;20189;-65
2021/11/04 04:52:26;;;;;;;0.30;0.20;;;9.20;99.90;;;;;;5035133;28;20196;-64
2021/11/04 04:54:52;;;;;;;0.60;0.60;;;8.60;99.90;;;;;;5035051;28;20200;-65
2021/11/04 04:57:22;;;;;;;0.20;0.10;;;8.80;99.90;;;;;;5035284;28;20189;-66
2021/11/04 04:59:55;;;;;;;0.20;0.20;;;8.80;99.90;;;;;;5034701;28;20638;-66
2021/11/04 05:02:22;;;;;;;0.20;0.20;;;9.10;99.90;;;;;;5034847;28;20196;-67
2021/11/04 05:04:48;;;;;;;0.40;0.40;;;8.90;99.90;;;;;;5035081;28;20603;-63
2021/11/04 05:07:14;;;;;;;1.80;1.07;;;8.60;99.90;;;;;;5034985;28;20187;-64
2021/11/04 05:09:40;;;;;;;0.20;0.20;;;8.50;99.90;;;;;;5033609;28;20441;-64
2021/11/04 05:12:05;;;;;;;1.80;1.70;;;8.40;99.90;;;;;;5033863;28;20181;-64
2021/11/04 05:14:31;;;;;;;0.20;0.20;;;8.60;99.90;;;;;;5034699;28;20193;-66
2021/11/04 05:16:57;;;;;;;0.30;0.20;;;8.70;99.90;;;;;;5033801;28;20432;-66
2021/11/04 05:19:22;;;;;;;0.83;0.83;;;8.60;99.90;;;;;;5034292;28;20204;-67
2021/11/04 05:21:48;;;;;;;0.20;0.17;;;8.60;99.90;;;;;;5034290;28;20300;-66
2021/11/04 05:24:13;;;;;;;0.20;0.20;;;8.50;99.90;;;;;;5034489;28;20185;-66
2021/11/04 05:26:39;;;;;;;0.20;0.20;;;8.40;99.90;;;;;;5034288;28;20242;-66
2021/11/04 05:29:05;;;;;;;0.20;0.20;;;8.50;99.90;;;;;;5034389;28;20598;-67
2021/11/04 05:31:31;;;;;;;1.67;1.57;;;8.70;99.90;;;;;;5033529;28;20211;-64
2021/11/04 05:33:57;;;;;;;0.20;0.20;;;8.50;99.90;;;;;;5034442;28;20219;-64
2021/11/04 05:36:24;;;;;;;2.00;1.85;;;8.50;99.90;;;;;;5034256;28;20238;-64
2021/11/04 05:38:51;;;;;;;0.80;0.80;;;8.20;99.90;;;;;;5034101;28;20187;-64
2021/11/04 05:41:17;;;;;;;0.20;0.20;;;8.10;99.90;;;;;;5034349;28;20266;-64
2021/11/04 05:43:43;;;;;;;0.20;0.20;;;8.00;99.90;;;;;;5033170;28;20189;-62
2021/11/04 05:46:09;;;;;;;0.30;0.30;;;7.90;99.90;;;;;;5034190;28;20191;-65
2021/11/04 05:48:35;;;;;;;1.80;1.33;;;8.00;99.90;;;;;;5033932;28;20311;-62
2021/11/04 05:51:00;;;;;;;4.53;1.90;;;8.10;99.90;;;;;;5033103;28;20470;-62
2021/11/04 05:53:26;;;;;;;0.20;0.17;;;8.10;99.90;;;;;;5034010;28;20639;-63
2021/11/04 05:55:51;;;;;;;0.90;0.90;;;8.30;99.90;;;;;;5034341;28;20626;-63
2021/11/04 05:58:18;;;;;;;2.03;1.90;;;8.40;99.90;;;;;;5033483;28;20179;-64
2021/11/04 06:00:44;;;;;;;2.42;2.33;;;8.10;99.90;;;;;;5033874;28;20290;-66
2021/11/04 06:03:12;;;;;;;1.50;0.93;;;8.10;99.90;;;;;;5033895;28;20242;-65
2021/11/04 06:05:38;;;;;;;0.20;0.10;;;8.20;99.90;;;;;;5033913;28;20184;-65
2021/11/04 06:08:03;;;;;;;8.73;2.70;;;8.10;99.90;;;;;;5033466;28;20173;-65
2021/11/04 06:10:41;;;;;;;1.37;0.53;;;8.00;99.90;;;;;;5033572;28;20582;-65
2021/11/04 06:13:07;;;;;;;3.40;1.17;;;8.20;99.90;;;;;;5031809;28;20203;-65
2021/11/04 06:15:33;;;;;;;2.10;2.00;;;8.10;99.90;;;;;;5033401;28;20505;-66
2021/11/04 06:17:58;;;;;;;0.30;0.20;;;8.20;99.90;;;;;;5033322;28;20549;-65
2021/11/04 06:20:24;;;;;;;0.20;0.20;;;8.20;99.90;;;;;;5033534;28;20461;-63
2021/11/04 06:22:50;;;;;;;2.08;1.98;;;8.40;99.90;;;;;;5032565;28;20178;-63
2021/11/04 06:25:16;;;;;;;0.50;0.40;;;8.40;99.90;;;;;;5033347;28;20192;-63
2021/11/04 06:27:41;;;;;;;2.17;1.97;;;8.40;99.90;;;;;;5034104;28;20510;-64
2021/11/04 06:30:08;;;;;;;0.30;0.20;;;8.30;99.90;;;;;;5033266;28;20177;-66
2021/11/04 06:32:34;;;;;;;0.93;0.93;;;8.00;99.90;;;;;;5033429;28;20566;-63
2021/11/04 06:35:01;;;;;;;0.73;0.73;;;8.10;99.90;;;;;;5033394;28;20241;-66
2021/11/04 06:37:27;;;;;;;1.30;1.30;;;8.20;99.90;;;;;;5033082;28;20189;-63
2021/11/04 06:39:52;;;;;;;6.00;0.83;;;8.10;99.90;;;;;;5032883;28;20584;-63
2021/11/04 06:42:18;;;;;;;0.20;0.20;;;8.00;99.90;;;;;;5033299;28;20634;-63
2021/11/04 06:44:43;;;;;;;0.40;0.40;;;8.20;99.90;;;;;;5032736;28;20267;-63
2021/11/04 06:47:30;;;;;;;1.37;1.37;;;8.30;99.90;;;;;;5032697;28;20199;-63
2021/11/04 06:50:02;;;;;;;0.52;0.52;;;7.90;99.90;;;;;;5033045;28;20626;-64
2021/11/04 06:52:34;;;;;;;1.55;1.45;;;7.90;99.90;;;;;;5033525;28;20196;-64
2021/11/04 06:55:03;;;;;;;0.90;0.90;;;7.90;99.90;;;;;;5033030;28;20318;-65
2021/11/04 06:57:30;;;;;;;1.48;1.38;;;8.00;99.90;;;;;;5033083;28;20192;-65
2021/11/04 06:59:58;;;;;;;0.75;0.75;;;8.10;99.90;;;;;;5032563;28;20204;-65
2021/11/04 07:02:35;;;;;;;0.90;0.88;;;8.20;99.90;;;;;;5033029;28;20172;-65
2021/11/04 07:05:04;;;;;;;2.25;1.55;;;8.20;99.90;;;;;;5015655;28;20606;-65
2021/11/04 07:07:44;;;;;;;1.40;1.13;;;8.10;99.90;;;;;;5032945;28;20498;-67
2021/11/04 07:10:15;;;;;;;0.35;0.35;;;8.10;99.90;;;;;;5032925;28;20196;-65
2021/11/04 07:12:47;;;;;;;1.20;1.10;;;8.00;99.90;;;;;;5032821;28;20223;-65
2021/11/04 07:15:14;;;;;;;4.47;2.78;;;8.00;99.90;;;;;;5033091;28;20231;-65
2021/11/04 07:17:41;;;;;;;3.30;1.63;;;7.90;99.90;;;;;;5032888;28;20194;-65
2021/11/04 07:20:09;;;;;;;0.20;0.20;;;7.90;99.90;;;;;;5015201;28;20207;-63
2021/11/04 07:22:37;;;;;;;6.03;4.05;;;7.80;99.90;;;;;;5032910;28;20254;-65
2021/11/04 07:25:14;;;;;;;1.90;1.80;;;7.80;99.90;;;;;;5031955;28;20595;-69
2021/11/04 07:27:57;;;;;;;2.00;0.85;;;7.80;99.90;;;;;;5032256;28;20185;-67
2021/11/04 07:30:24;;;;;;;0.73;0.50;;;7.90;99.90;;;;;;5031280;28;20193;-67
2021/11/04 07:32:55;;;;;;;0.20;0.10;;;7.80;99.90;;;;;;5032719;28;20200;-67
2021/11/04 07:35:26;;;;;;;3.28;1.95;;;7.90;99.90;;;;;;5014419;28;20625;-68
2021/11/04 07:37:53;;;;;;;2.85;2.33;;;7.80;99.90;;;;;;5035737;28;20188;-69
2021/11/04 07:40:21;;;;;;;4.45;2.67;;;7.70;99.90;;;;;;5035554;28;20204;-68
2021/11/04 07:42:47;;;;;;;2.80;2.15;;;7.80;99.90;;;;;;5039001;28;20185;-66
2021/11/04 07:45:13;;;;;;;5.25;3.30;;;7.70;99.90;;;;;;5035939;28;20634;-66
2021/11/04 07:47:41;;;;;;;2.38;1.98;;;7.70;99.90;;;;;;5036205;28;20189;-66
2021/11/04 07:50:09;;;;;;;12.30;3.55;;;7.70;99.90;;;;;;5035367;28;20182;-65
2021/11/04 07:52:36;;;;;;;9.20;8.68;;;7.70;99.90;;;;;;5036469;28;20177;-66
2021/11/04 07:55:03;;;;;;;2.63;1.98;;;7.70;99.90;;;;;;5036204;28;20178;-65
2021/11/04 07:57:29;;;;;;;1.55;1.45;;;7.80;99.90;;;;;;5035877;28;20241;-66
2021/11/04 07:59:55;;;;;;;5.07;3.10;;;7.80;99.90;;;;;;5035235;28;20199;-64
2021/11/04 08:02:20;;;;;;;0.50;0.50;;;7.80;99.90;;;;;;5035372;28;20182;-64
2021/11/04 08:04:46;;;;;;;0.30;0.20;;;7.80;99.90;;;;;;5035797;28;20203;-65
2021/11/04 08:07:12;;;;;;;0.67;0.67;;;7.80;99.90;;;;;;5035930;28;20316;-64
2021/11/04 08:09:38;;;;;;;4.53;2.60;;;7.80;99.90;;;;;;5035662;28;20208;-64
2021/11/04 08:12:04;;;;;;;1.10;1.00;;;7.80;99.90;;;;;;5018005;28;20191;-65
2021/11/04 08:14:29;;;;;;;1.50;1.43;;;7.80;99.90;;;;;;5035403;28;20620;-64
2021/11/04 08:16:55;;;;;;;3.30;2.07;;;7.90;99.90;;;;;;5035608;28;20424;-67
2021/11/04 08:19:21;;;;;;;1.13;0.50;;;8.00;99.90;;;;;;5034926;28;20226;-66
2021/11/04 08:21:46;;;;;;;1.13;0.90;;;7.90;99.90;;;;;;5035840;28;20641;-68
2021/11/04 08:24:12;;;;;;;0.20;0.10;;;8.10;99.90;;;;;;5035279;28;20819;-67
2021/11/04 08:26:38;;;;;;;1.63;1.53;;;8.20;99.90;;;;;;5035244;28;20571;-69
2021/11/04 08:29:04;;;;;;;1.65;1.38;;;8.20;99.90;;;;;;5035006;28;20809;-67
2021/11/04 08:31:30;;;;;;;1.90;1.33;;;8.10;99.90;;;;;;5034158;28;20189;-66
2021/11/04 08:33:56;;;;;;;2.40;2.20;;;8.30;99.90;;;;;;5033777;28;20200;-66
2021/11/04 08:36:22;;;;;;;0.63;0.60;;;8.20;99.90;;;;;;5033590;28;20308;-66
2021/11/04 08:38:48;;;;;;;1.30;1.20;;;8.20;99.90;;;;;;5033542;28;20423;-66
2021/11/04 08:41:14;;;;;;;2.47;2.37;;;8.30;99.90;;;;;;5033713;28;20470;-67
2021/11/04 08:43:40;;;;;;;1.60;1.52;;;8.30;99.90;;;;;;5035034;28;20177;-65
2021/11/04 08:46:07;;;;;;;0.20;0.20;;;8.20;99.90;;;;;;5034068;28;20243;-66
2021/11/04 08:48:33;;;;;;;3.80;2.92;;;8.20;99.90;;;;;;5035045;28;20730;-66
2021/11/04 08:50:58;;;;;;;2.00;1.90;;;8.20;99.90;;;;;;5035350;28;20177;-66
2021/11/04 08:53:25;;;;;;;4.97;3.50;;;8.10;99.90;;;;;;5035150;28;20189;-66
2021/11/04 08:55:50;;;;;;;1.15;1.15;;;8.20;99.90;;;;;;5035151;28;20197;-66
2021/11/04 08:58:16;;;;;;;0.30;0.20;;;8.10;99.90;;;;;;5017203;28;20189;-66
2021/11/04 09:00:42;;;;;;;0.37;0.37;;;8.20;99.90;;;;;;5034800;28;20208;-65
2021/11/04 09:03:08;;;;;;;1.35;1.25;;;8.20;99.90;;;;;;5035203;28;20260;-64
2021/11/04 09:05:35;;;;;;;3.67;3.38;;;8.30;99.90;;;;;;5035147;28;20176;-66
2021/11/04 09:08:01;;;;;;;0.70;0.65;;;8.30;99.90;;;;;;5034396;28;20180;-65
2021/11/04 09:10:27;;;;;;;1.67;1.58;;;8.30;99.90;;;;;;5034558;28;20220;-66
2021/11/04 09:12:53;;;;;;;1.63;1.40;;;8.40;99.90;;;;;;5034233;28;20622;-66
2021/11/04 09:15:18;;;;;;;0.93;0.90;;;8.30;99.90;;;;;;5034437;28;20234;-65
2021/11/04 09:17:44;;;;;;;0.57;0.30;;;8.30;99.90;;;;;;5034203;28;20210;-65
2021/11/04 09:20:14;;;;;;;4.63;3.30;;;8.20;99.90;;;;;;5034021;28;20204;-65
2021/11/04 09:22:40;;;;;;;0.20;0.20;;;8.20;99.90;;;;;;5016725;28;20789;-67
2021/11/04 09:25:06;;;;;;;3.53;2.17;;;8.20;99.90;;;;;;5034407;28;20177;-67
2021/11/04 09:27:31;;;;;;;0.20;0.20;;;8.20;99.90;;;;;;5034725;28;20172;-63
2021/11/04 09:30:01;;;;;;;4.43;3.50;;;8.30;99.90;;;;;;5033789;28;20185;-62
2021/11/04 09:32:26;;;;;;;0.70;0.70;;;8.30;99.90;;;;;;5033879;28;20190;-62
2021/11/04 09:34:52;;;;;;;2.00;1.17;;;8.30;99.90;;;;;;5029298;28;20194;-62
2021/11/04 09:37:18;;;;;;;0.50;0.50;;;8.40;99.90;;;;;;5034093;28;20235;-65
2021/11/04 09:39:47;;;;;;;0.65;0.47;;;8.30;99.90;;;;;;5036104;28;20481;-64
2021/11/04 09:42:17;;;;;;;0.73;0.73;;;8.30;99.90;;;;;;5033653;28;20270;-65
2021/11/04 09:44:44;;;;;;;5.60;2.47;;;8.40;99.90;;;;;;5033798;28;20212;-66
2021/11/04 09:47:10;;;;;;;2.08;1.05;;;8.40;99.90;;;;;;5033902;28;20181;-65
2021/11/04 09:49:35;;;;;;;0.90;0.87;;;8.40;99.90;;;;;;5029331;28;20193;-65
2021/11/04 09:52:01;;;;;;;0.87;0.87;;;8.50;99.90;;;;;;5033639;28;20212;-65
2021/11/04 09:54:26;;;;;;;2.17;2.10;;;8.40;99.90;;;;;;5033549;28;20508;-65
2021/11/04 09:56:52;;;;;;;0.27;0.23;;;8.60;99.90;;;;;;5033347;28;20596;-66
2021/11/04 09:59:20;;;;;;;1.50;1.50;;;8.60;99.90;;;;;;5032974;28;20201;-66
2021/11/04 10:01:47;;;;;;;0.32;0.32;;;8.50;99.90;;;;;;5033319;28;20619;-66
2021/11/04 10:04:13;;;;;;;1.40;1.30;;;8.50;99.90;;;;;;5029936;28;20200;-67
2021/11/04 10:06:40;;;;;;;1.67;0.93;;;8.50;99.90;;;;;;5029091;28;20276;-66
2021/11/04 10:09:12;;;;;;;3.05;1.63;;;8.50;99.90;;;;;;5033432;28;20318;-67
2021/11/04 10:11:41;;;;;;;1.20;0.90;;;8.50;99.90;;;;;;5033689;28;20337;-66
2021/11/04 10:14:12;;;;;;;1.48;1.27;;;8.50;99.90;;;;;;5033545;28;20275;-66
2021/11/04 10:16:39;;;;;;;2.47;2.28;;;8.50;99.90;;;;;;5033629;28;20547;-67
2021/11/04 10:19:12;;;;;;;5.80;3.03;;;8.50;99.90;;;;;;5033415;28;20239;-68
2021/11/04 10:21:41;;;;;;;2.05;1.15;;;8.50;99.90;;;;;;5033553;28;20217;-68
2021/11/04 10:24:18;;;;;;;0.95;0.88;;;8.70;99.90;;;;;;5033596;28;20270;-67
2021/11/04 10:26:44;;;;;;;2.38;1.95;;;8.80;99.90;;;;;;5033619;28;20638;-66
2021/11/04 10:29:12;;;;;;;0.38;0.38;;;8.60;99.90;;;;;;5033388;28;20271;-65
2021/11/04 10:31:49;;;;;;;0.20;0.20;;;8.60;99.90;;;;;;5033927;28;20251;-65
2021/11/04 10:34:26;;;;;;;4.30;3.90;;;8.70;99.90;;;;;;5029852;28;20549;-65
2021/11/04 10:36:52;;;;;;;3.78;3.45;;;8.50;99.90;;;;;;5033444;28;20187;-67
2021/11/04 10:39:18;;;;;;;0.63;0.63;;;8.60;99.90;;;;;;5034793;28;20257;-65
2021/11/04 10:41:44;;;;;;;4.83;1.63;;;8.70;99.90;;;;;;5032541;28;20181;-64
2021/11/04 10:44:21;;;;;;;4.60;1.17;;;8.70;99.90;;;;;;5034079;28;20176;-64
2021/11/04 10:46:48;;;;;;;1.33;1.23;;;8.60;99.90;;;;;;5034904;28;20214;-65
2021/11/04 10:49:15;;;;;;;0.47;0.40;;;8.60;99.90;;;;;;5033490;28;20471;-65
2021/11/04 10:51:41;;;;;;;1.00;0.77;;;8.60;99.90;;;;;;5034210;28;20252;-66
2021/11/04 10:54:09;;;;;;;0.82;0.82;;;8.80;99.90;;;;;;5033188;28;20219;-68
2021/11/04 10:56:43;;;;;;;4.80;3.42;;;9.10;99.90;;;;;;5033140;28;20182;-68
2021/11/04 10:59:11;;;;;;;4.82;2.10;;;8.90;99.90;;;;;;5032782;28;20303;-67
2021/11/04 11:01:42;;;;;;;0.30;0.20;;;8.80;99.90;;;;;;5033441;28;20644;-67
2021/11/04 11:04:17;;;;;;;4.18;2.70;;;8.90;99.90;;;;;;5033119;28;20559;-67
2021/11/04 11:06:50;;;;;;;1.08;1.05;;;8.70;99.90;;;;;;5033194;28;20219;-66
2021/11/04 11:09:20;;;;;;;1.65;1.38;;;8.90;99.90;;;;;;5034445;28;20305;-68
2021/11/04 11:11:49;;;;;;;1.55;1.05;;;8.80;99.90;;;;;;5032593;28;20220;-68
2021/11/04 11:14:19;;;;;;;1.17;1.08;;;8.80;99.90;;;;;;5027091;28;20213;-68
2021/11/04 11:16:51;;;;;;;5.70;3.15;;;9.00;99.90;;;;;;5036589;28;20200;-67
2021/11/04 11:19:29;;;;;;;5.32;4.50;;;8.80;99.90;;;;;;5036153;28;20235;-67
2021/11/04 11:21:56;;;;;;;8.88;3.20;;;8.80;99.90;;;;;;5036620;28;20185;-66
2021/11/04 11:24:28;;;;;;;3.33;2.35;;;8.70;99.90;;;;;;5036905;28;20204;-66
2021/11/04 11:26:55;;;;;;;3.58;2.20;;;8.60;99.90;;;;;;5036793;28;20180;-66
2021/11/04 11:29:22;;;;;;;1.27;1.17;;;8.70;99.90;;;;;;5036433;28;20510;-66
2021/11/04 11:31:54;;;;;;;1.77;1.67;;;8.70;99.90;;;;;;5036457;28;20610;-66
2021/11/04 11:34:21;;;;;;;9.80;5.43;;;8.90;99.90;;;;;;5036705;28;20200;-65
2021/11/04 11:37:17;;;;;;;3.00;2.80;;;8.70;99.90;;;;;;5036711;28;20194;-65
2021/11/04 11:39:47;;;;;;;1.25;1.20;;;8.70;99.90;;;;;;5035055;28;20219;-67
2021/11/04 11:42:20;;;;;;;2.80;2.55;;;8.80;99.90;;;;;;5036143;28;20181;-68
2021/11/04 11:45:02;;;;;;;0.52;0.52;;;8.90;99.90;;;;;;5036139;28;20184;-68
2021/11/04 11:47:37;;;;;;;2.20;2.10;;;9.00;99.90;;;;;;5036296;28;20245;-68
2021/11/04 11:50:26;;;;;;;2.88;2.67;;;9.00;99.90;;;;;;5036062;28;20184;-69
2021/11/04 11:52:59;;;;;;;5.00;4.80;;;8.80;99.90;;;;;;5036224;28;20250;-67
2021/11/04 11:55:36;;;;;;;0.32;0.32;;;8.70;99.90;;;;;;5036143;28;20189;-67
2021/11/04 11:58:16;;;;;;;3.67;3.47;;;8.90;99.90;;;;;;5028108;28;20181;-66
2021/11/04 12:01:08;;;;;;;3.22;1.98;;;8.80;99.90;;;;;;5036618;28;20246;-67
2021/11/04 12:03:37;;;;;;;1.20;1.13;;;8.90;99.90;;;;;;5035932;28;20622;-67
2021/11/04 12:06:12;;;;;;;0.20;0.20;;;9.00;99.90;;;;;;5035909;28;20176;-66
2021/11/04 12:08:39;;;;;;;1.58;1.48;;;8.90;99.90;;;;;;5035396;28;20629;-65
2021/11/04 12:11:07;;;;;;;1.05;0.82;;;8.90;99.90;;;;;;5035782;28;20228;-67
2021/11/04 12:13:40;;;;;;;1.15;0.93;;;9.00;99.90;;;;;;5035755;28;20260;-67
2021/11/04 12:16:21;;;;;;;5.28;3.00;;;8.80;99.90;;;;;;5035952;28;20188;-65
2021/11/04 12:18:58;;;;;;;6.88;4.53;;;8.70;99.90;;;;;;5036064;28;20555;-64
2021/11/04 12:21:24;;;;;;;5.30;4.80;;;8.50;99.90;;;;;;5034422;28;20219;-65
2021/11/04 12:23:50;;;;;;;4.30;2.40;;;8.60;99.90;;;;;;5035866;28;20199;-69
2021/11/04 12:26:31;;;;;;;1.77;1.58;;;8.70;99.90;;;;;;5035391;28;20176;-68
2021/11/04 12:28:57;;;;;;;1.10;0.90;;;8.80;99.90;;;;;;5018718;28;20215;-67
2021/11/04 12:31:24;;;;;;;1.37;0.87;;;8.90;99.90;;;;;;5035568;28;20206;-67
2021/11/04 12:34:00;;;;;;;0.50;0.47;;;9.00;99.90;;;;;;5035307;28;20242;-66
2021/11/04 12:36:29;;;;;;;1.48;1.42;;;8.70;99.90;;;;;;5035443;28;20184;-65
2021/11/04 12:38:55;;;;;;;2.75;2.30;;;8.70;99.90;;;;;;5035114;28;20205;-65
2021/11/04 12:41:21;;;;;;;1.48;0.43;;;8.60;99.90;;;;;;5035492;28;20215;-65
2021/11/04 12:43:49;;;;;;;3.30;2.60;;;8.70;99.90;;;;;;5035265;28;20268;-65
2021/11/04 12:46:19;;;;;;;1.75;1.65;;;8.80;99.90;;;;;;5034910;28;20179;-67
2021/11/04 12:48:46;;;;;;;3.25;2.58;;;8.70;99.90;;;;;;5035248;28;20178;-66
2021/11/04 12:51:13;;;;;;;2.47;2.28;;;8.70;99.90;;;;;;5035415;28;20187;-66
2021/11/04 12:53:52;;;;;;;2.90;1.10;;;8.70;99.90;;;;;;5035191;28;20180;-70
2021/11/04 12:56:18;;;;;;;0.95;0.77;;;8.70;99.90;;;;;;5017464;28;20189;-64
2021/11/04 12:58:51;;;;;;;4.67;2.30;;;8.70;99.90;;;;;;5034990;28;20180;-67
2021/11/04 13:01:17;;;;;;;2.05;1.85;;;8.70;99.90;;;;;;5035740;28;20535;-69
2021/11/04 13:03:42;;;;;;;1.70;1.60;;;8.60;99.90;;;;;;5034850;28;20207;-65